Terminal Aerodrome Forecast
Issued by NWS

Home | Current Version | Previous Version | Text Only | Print | Product List | Glossary On
Versions: 1 2 3 4 5 6 7 8 9 10 11 12 13
924
FTUS45 KRIW 251729
TAFCOD
TAF
KCOD 251729Z 2518/2618 01012KT P6SM VCSH SCT050 BKN070
     FM252100 02011KT P6SM VCSH OVC030
      TEMPO 2523/2603 -RA BKN018
     FM260400 30006KT P6SM SCT030 BKN060
     FM260800 VRB05KT P6SM SCT060
      AMD LTD TO CLD VIS AND WIND=

USA.gov is the U.S. government's official web portal to all federal, state and local government web resources and services.